createdAt,value
2022-09-15T00:04:01.189Z,66.07
2022-09-15T00:09:05.113Z,64.97
2022-09-15T00:14:10.076Z,72.28
2022-09-15T00:19:12.865Z,35.88
2022-09-15T00:24:15.609Z,25.27
2022-09-15T00:29:20.764Z,38.83
2022-09-15T00:34:23.505Z,38.65
2022-09-15T00:39:26.287Z,45.33
2022-09-15T00:45:04.223Z,38.83
2022-09-15T00:50:11.835Z,37.95
2022-09-15T00:55:18.403Z,32.80
2022-09-15T01:00:25.994Z,30.30
2022-09-15T01:05:46.587Z,26.55
2022-09-15T01:10:52.000Z,38.88
2022-09-15T01:16:02.685Z,42.10
2022-09-15T01:21:13.207Z,40.45
2022-09-15T01:26:49.577Z,38.78
2022-09-15T01:32:16.332Z,43.42
2022-09-15T01:37:25.243Z,41.58
2022-09-15T01:42:31.536Z,47.83
2022-09-15T01:47:37.439Z,44.90
2022-09-15T01:52:44.244Z,50.67
2022-09-15T01:57:47.040Z,46.35
2022-09-15T02:02:57.190Z,48.80
2022-09-15T02:08:06.051Z,67.28
2022-09-15T02:13:15.634Z,47.45
2022-09-15T02:18:29.771Z,45.33
2022-09-15T02:23:37.604Z,49.33
2022-09-15T02:28:42.319Z,47.42
2022-09-15T02:33:50.399Z,39.55
2022-09-15T02:38:58.120Z,43.25
2022-09-15T02:44:00.907Z,35.83
2022-09-15T02:49:05.010Z,44.65
2022-09-15T02:54:08.171Z,34.28
2022-09-15T02:59:11.009Z,41.60
2022-09-15T03:04:15.335Z,38.38
2022-09-15T03:09:18.049Z,37.45
2022-09-15T03:14:20.756Z,34.25
2022-09-15T03:19:24.805Z,37.65
2022-09-15T03:24:27.690Z,40.25
2022-09-15T03:29:30.903Z,29.75
2022-09-15T03:34:35.282Z,35.40
2022-09-15T03:39:38.035Z,27.27
2022-09-15T03:44:40.873Z,26.40
2022-09-15T03:49:45.473Z,30.33
2022-09-15T03:54:49.699Z,28.27
2022-09-15T03:59:52.378Z,24.08
2022-09-15T04:04:56.899Z,22.90
2022-09-15T04:10:00.938Z,25.02
2022-09-15T04:15:05.017Z,27.23
2022-09-15T04:20:11.167Z,29.63
2022-09-15T04:25:13.855Z,28.33
2022-09-15T04:30:16.555Z,24.15
2022-09-15T04:35:22.007Z,30.23
2022-09-15T04:40:25.835Z,34.33
2022-09-15T04:45:28.699Z,34.08
2022-09-15T04:50:33.802Z,45.47
2022-09-15T04:55:38.627Z,40.90
2022-09-15T05:00:43.526Z,38.45
2022-09-15T05:05:48.972Z,38.83
2022-09-15T05:10:51.638Z,44.50
2022-09-15T05:15:54.490Z,34.42
2022-09-15T05:21:00.783Z,41.22
2022-09-15T05:26:05.799Z,44.05
2022-09-15T05:31:11.325Z,42.20
2022-09-15T05:36:17.211Z,45.80
2022-09-15T05:41:20.802Z,43.22
2022-09-15T05:46:25.958Z,36.83
2022-09-15T05:51:33.381Z,43.20
2022-09-15T05:56:36.184Z,51.88
2022-09-15T06:01:39.068Z,45.17
2022-09-15T06:06:43.243Z,48.53
2022-09-15T06:11:46.158Z,55.58
2022-09-15T06:16:48.887Z,46.97
2022-09-15T06:21:54.002Z,45.50
2022-09-15T06:26:56.738Z,52.10
2022-09-15T06:32:02.838Z,55.85
2022-09-15T06:37:08.036Z,53.55
2022-09-15T06:42:13.811Z,56.05
2022-09-15T06:47:17.915Z,52.45
2022-09-15T06:52:22.107Z,60.45
2022-09-15T06:57:25.003Z,69.72
2022-09-15T07:02:27.835Z,67.13
2022-09-15T07:07:32.313Z,59.80
2022-09-15T07:12:35.141Z,59.67
2022-09-15T07:17:37.919Z,59.00
2022-09-15T07:22:41.979Z,68.55
2022-09-15T07:27:44.907Z,59.72
2022-09-15T07:32:47.676Z,61.08
2022-09-15T07:37:52.406Z,59.63
2022-09-15T07:42:55.210Z,50.22
2022-09-15T07:47:58.140Z,51.25
2022-09-15T07:53:02.555Z,58.78
2022-09-15T07:58:05.333Z,47.90
2022-09-15T08:03:08.075Z,49.63
2022-09-15T08:08:12.216Z,46.03
2022-09-15T08:13:15.310Z,45.30
2022-09-15T08:18:19.169Z,48.72
2022-09-15T08:23:23.384Z,40.38
2022-09-15T08:28:26.845Z,44.08
2022-09-15T08:33:31.527Z,43.10
2022-09-15T08:38:35.674Z,45.05
2022-09-15T08:43:42.196Z,43.83
2022-09-15T08:48:49.294Z,42.67
2022-09-15T08:54:00.475Z,39.05
2022-09-15T08:59:03.205Z,38.40
2022-09-15T09:04:33.286Z,47.08
2022-09-15T09:09:43.763Z,47.72
2022-09-15T09:15:00.132Z,43.28
2022-09-15T09:20:26.226Z,40.67
2022-09-15T09:25:35.007Z,34.73
2022-09-15T09:30:38.215Z,35.80
2022-09-15T09:35:44.903Z,33.28
2022-09-15T09:40:50.167Z,28.05
2022-09-15T09:45:53.007Z,23.88
2022-09-15T09:50:55.990Z,30.70
2022-09-15T09:56:24.722Z,33.75
2022-09-15T10:01:27.617Z,29.77
2022-09-15T10:06:32.084Z,23.67
2022-09-15T10:11:43.970Z,21.60
2022-09-15T10:16:57.510Z,19.30
2022-09-15T10:22:03.051Z,24.42
2022-09-15T10:27:19.637Z,20.13
2022-09-15T10:32:28.899Z,23.17
2022-09-15T10:37:36.043Z,23.48
2022-09-15T10:42:50.844Z,20.08
2022-09-15T10:48:07.220Z,17.63
2022-09-15T10:53:18.319Z,17.63
2022-09-15T10:58:45.869Z,22.05
2022-09-15T11:04:12.519Z,16.52
2022-09-15T11:09:22.360Z,28.60
2022-09-15T11:14:39.515Z,18.98
2022-09-15T11:20:01.729Z,28.95
2022-09-15T11:25:13.779Z,32.78
2022-09-15T11:30:20.653Z,18.90
2022-09-15T11:35:33.793Z,17.95
2022-09-15T11:40:42.149Z,15.18
2022-09-15T11:45:48.600Z,19.52
2022-09-15T11:50:55.967Z,10.13
2022-09-15T11:56:08.218Z,13.77
2022-09-15T12:01:20.384Z,12.70
2022-09-15T12:06:30.169Z,12.63
2022-09-15T12:11:36.526Z,10.70
2022-09-15T12:16:41.405Z,14.18
2022-09-15T12:21:51.145Z,12.95
2022-09-15T12:26:53.965Z,13.27
2022-09-15T12:37:26.763Z,13.30
2022-09-15T12:42:32.180Z,11.93
2022-09-15T12:47:38.993Z,11.13
2022-09-15T12:52:48.296Z,13.40
2022-09-15T12:57:54.095Z,10.80
2022-09-15T13:02:57.405Z,13.40
2022-09-15T13:08:01.687Z,6.10
2022-09-15T13:13:21.594Z,7.32
2022-09-15T13:18:26.292Z,13.38
2022-09-15T13:23:36.631Z,10.40
2022-09-15T13:28:40.396Z,8.02
2022-09-15T13:40:09.570Z,12.77
2022-09-15T13:45:25.549Z,12.25
2022-09-15T13:50:35.325Z,6.05
2022-09-15T13:55:42.627Z,7.40
2022-09-15T14:00:55.063Z,8.43
2022-09-15T14:05:58.697Z,13.82
2022-09-15T14:11:08.215Z,7.32
2022-09-15T14:16:24.607Z,8.88
2022-09-15T14:21:29.679Z,6.05
2022-09-15T14:26:36.386Z,8.85
2022-09-15T14:31:40.987Z,5.57
2022-09-15T14:36:43.947Z,11.05
2022-09-15T14:41:49.672Z,6.10
2022-09-15T14:46:52.991Z,5.10
2022-09-15T14:51:55.731Z,9.45
2022-09-15T14:57:03.676Z,10.38
2022-09-15T15:02:20.481Z,4.38
2022-09-15T15:07:26.209Z,4.80
2022-09-15T15:12:34.653Z,5.85
2022-09-15T15:17:40.009Z,4.95
2022-09-15T15:22:44.547Z,5.03
2022-09-15T15:27:53.006Z,4.72
2022-09-15T15:32:56.658Z,4.65
2022-09-15T15:38:05.046Z,10.38
2022-09-15T15:43:23.393Z,6.75
2022-09-15T15:48:26.753Z,6.15
2022-09-15T15:53:29.520Z,6.22
2022-09-15T15:58:33.658Z,7.50
2022-09-15T16:03:36.379Z,10.63
2022-09-15T16:08:41.287Z,10.77
2022-09-15T16:13:45.710Z,7.00
2022-09-15T16:18:49.035Z,11.68
2022-09-15T16:23:51.784Z,11.57
2022-09-15T16:28:55.910Z,3.97
2022-09-15T16:33:58.762Z,8.07
2022-09-15T16:39:01.487Z,8.60
2022-09-15T16:44:07.507Z,5.05
2022-09-15T16:49:10.291Z,6.82
2022-09-15T16:54:16.468Z,13.70
2022-09-15T16:59:21.803Z,12.93
2022-09-15T17:04:24.523Z,6.05
2022-09-15T17:09:27.791Z,9.63
2022-09-15T17:14:33.095Z,8.57
2022-09-15T17:19:35.776Z,11.07
2022-09-15T17:24:38.563Z,5.80
2022-09-15T17:29:42.600Z,9.95
2022-09-15T17:34:46.176Z,16.45
2022-09-15T17:39:49.932Z,12.45
2022-09-15T17:44:54.054Z,12.43
2022-09-15T17:49:56.771Z,7.22
2022-09-15T17:54:59.471Z,8.80
2022-09-15T18:00:03.784Z,18.60
2022-09-15T18:05:10.683Z,14.50
2022-09-15T18:10:13.677Z,12.93
2022-09-15T18:15:21.128Z,7.43
2022-09-15T18:20:26.188Z,6.82
2022-09-15T18:25:35.783Z,9.80
2022-09-15T18:30:41.667Z,8.45
2022-09-15T18:35:45.311Z,15.18
2022-09-15T18:40:49.316Z,9.43
2022-09-15T18:45:55.073Z,10.65
2022-09-15T18:50:58.090Z,15.60
2022-09-15T18:56:00.878Z,9.95
2022-09-15T19:01:05.183Z,4.90
2022-09-15T19:06:08.599Z,7.65
2022-09-15T19:11:11.323Z,3.78
2022-09-15T19:16:15.628Z,5.53
2022-09-15T19:21:18.515Z,4.05
2022-09-15T19:26:21.599Z,10.20
2022-09-15T19:31:28.226Z,17.95
2022-09-15T19:36:31.578Z,8.57
2022-09-15T19:41:34.299Z,5.43
2022-09-15T19:46:38.474Z,6.63
2022-09-15T19:51:41.451Z,5.88
2022-09-15T19:56:44.174Z,11.38
2022-09-15T20:01:48.553Z,11.60
2022-09-15T20:06:51.559Z,12.90
2022-09-15T20:11:54.218Z,10.48
2022-09-15T20:17:01.131Z,7.35
2022-09-15T20:22:04.846Z,14.68
2022-09-15T20:27:08.809Z,9.63
2022-09-15T20:32:13.233Z,6.22
2022-09-15T20:37:15.984Z,8.73
2022-09-15T20:42:18.818Z,13.88
2022-09-15T20:47:23.068Z,11.38
2022-09-15T20:52:29.482Z,13.23
2022-09-15T20:57:33.161Z,10.20
2022-09-15T21:02:37.511Z,9.73
2022-09-15T21:07:40.455Z,5.47
2022-09-15T21:12:43.211Z,9.27
2022-09-15T21:17:47.491Z,8.13
2022-09-15T21:22:54.381Z,8.82
2022-09-15T21:27:57.166Z,11.93
2022-09-15T21:33:01.979Z,12.95
2022-09-15T21:38:05.042Z,5.68
2022-09-15T21:43:07.818Z,16.83
2022-09-15T21:48:14.117Z,8.18
2022-09-15T21:53:16.882Z,5.25
2022-09-15T21:58:20.937Z,13.45
2022-09-15T22:03:25.418Z,12.05
2022-09-15T22:08:29.105Z,16.08
2022-09-15T22:13:31.946Z,19.65
2022-09-15T22:18:38.275Z,13.85
2022-09-15T22:23:41.817Z,15.35
2022-09-15T22:28:45.118Z,6.45
2022-09-15T22:33:49.425Z,11.20
2022-09-15T22:38:52.334Z,12.65
2022-09-15T22:43:55.769Z,14.95
2022-09-15T22:49:00.825Z,20.70
2022-09-15T22:54:03.816Z,5.25
2022-09-15T22:59:06.481Z,10.55
2022-09-15T23:04:10.525Z,8.48
2022-09-15T23:09:15.459Z,3.45
2022-09-15T23:14:19.018Z,19.40
2022-09-15T23:19:24.161Z,16.63
2022-09-15T23:24:26.920Z,2.78
2022-09-15T23:29:29.716Z,8.52
2022-09-15T23:34:33.763Z,6.38
2022-09-15T23:39:36.561Z,8.73
2022-09-15T23:44:39.333Z,4.00
2022-09-15T23:49:43.375Z,5.38
2022-09-15T23:54:46.155Z,10.43
2022-09-15T23:59:48.842Z,11.57
